createdAt,value
2018-12-24T00:02:19.311Z,98108.14
2018-12-24T00:04:48.088Z,98106.97
2018-12-24T00:07:16.756Z,98110.94
2018-12-24T00:09:45.265Z,98110.13
2018-12-24T00:12:13.781Z,98109.55
2018-12-24T00:14:42.732Z,98105.68
2018-12-24T00:17:12.038Z,98109.48
2018-12-24T00:19:40.571Z,98094.80
2018-12-24T00:22:09.114Z,98102.44
2018-12-24T00:24:37.858Z,98101.50
2018-12-24T00:27:07.035Z,98104.98
2018-12-24T00:29:35.864Z,98103.70
2018-12-24T00:32:04.413Z,98100.43
2018-12-24T00:34:33.025Z,98098.45
2018-12-24T00:37:01.558Z,98102.55
2018-12-24T00:39:30.564Z,98106.69
2018-12-24T00:41:59.583Z,98118.66
2018-12-24T00:44:28.176Z,98116.30
2018-12-24T00:46:57.114Z,98117.69
2018-12-24T00:49:25.682Z,98131.34
2018-12-24T00:51:54.808Z,98131.93
2018-12-24T00:54:23.611Z,98133.11
2018-12-24T00:56:52.432Z,98121.02
2018-12-24T00:59:21.221Z,98120.66
2018-12-24T01:01:49.733Z,98120.80
2018-12-24T01:04:18.548Z,98126.17
2018-12-24T01:06:47.245Z,98134.37
2018-12-24T01:09:16.507Z,98134.13
2018-12-24T01:11:45.082Z,98131.55
2018-12-24T01:14:13.826Z,98135.67
2018-12-24T01:16:42.414Z,98122.03
2018-12-24T01:19:11.095Z,98116.27
2018-12-24T01:22:31.579Z,98111.57
2018-12-24T01:25:12.148Z,98105.63
2018-12-24T01:27:53.217Z,98109.02
2018-12-24T01:30:33.970Z,98097.91
2018-12-24T01:33:14.164Z,98079.64
2018-12-24T01:36:01.633Z,98112.78
2018-12-24T01:38:41.646Z,98078.46
2018-12-24T01:41:22.787Z,98087.92
2018-12-24T01:44:03.780Z,98078.46
2018-12-24T01:46:51.270Z,98069.77
2018-12-24T01:49:32.385Z,98091.44
2018-12-24T01:52:12.915Z,98088.86
2018-12-24T01:54:54.008Z,98063.09
2018-12-24T01:57:35.032Z,98080.08
2018-12-24T02:00:15.350Z,98097.39
2018-12-24T02:02:56.324Z,98076.31
2018-12-24T02:05:37.438Z,98077.88
2018-12-24T02:08:17.525Z,98128.56
2018-12-24T02:10:57.677Z,98125.21
2018-12-24T02:13:37.831Z,98165.97
2018-12-24T02:16:25.337Z,98194.63
2018-12-24T02:19:06.127Z,98211.17
2018-12-24T02:21:46.226Z,98244.81
2018-12-24T02:24:26.551Z,98237.33
2018-12-24T02:27:07.321Z,98291.73
2018-12-24T02:29:47.465Z,98333.00
2018-12-24T02:32:27.620Z,98331.11
2018-12-24T02:35:08.660Z,98333.33
2018-12-24T02:37:49.240Z,98330.00
2018-12-24T02:40:29.863Z,98327.83
2018-12-24T02:43:09.916Z,98351.55
2018-12-24T02:45:51.233Z,98333.88
2018-12-24T02:48:31.997Z,98366.37
2018-12-24T02:51:12.288Z,98372.25
2018-12-24T02:53:53.016Z,98353.09
2018-12-24T02:56:33.808Z,98370.85
2018-12-24T02:59:14.847Z,98367.95
2018-12-24T03:01:55.038Z,98375.08
2018-12-24T03:04:35.359Z,98380.47
2018-12-24T03:07:15.457Z,98369.95
2018-12-24T03:09:55.549Z,98372.05
2018-12-24T03:12:36.442Z,98386.42
2018-12-24T03:15:16.578Z,98399.63
2018-12-24T03:17:56.706Z,98411.27
2018-12-24T03:20:37.769Z,98411.72
2018-12-24T03:23:18.746Z,98418.13
2018-12-24T03:25:59.309Z,98400.36
2018-12-24T03:28:39.387Z,98407.09
2018-12-24T03:31:19.560Z,98421.46
2018-12-24T03:33:59.588Z,98430.33
2018-12-24T03:36:40.413Z,98434.84
2018-12-24T03:39:21.144Z,98431.89
2018-12-24T03:42:02.261Z,98422.27
2018-12-24T03:44:43.232Z,98446.80
2018-12-24T03:47:23.398Z,98448.59
2018-12-24T03:50:03.781Z,98452.42
2018-12-24T03:52:44.265Z,98500.59
2018-12-24T03:55:24.467Z,98480.46
2018-12-24T03:58:05.295Z,98492.30
2018-12-24T04:00:46.307Z,98545.89
2018-12-24T04:03:26.529Z,98534.92
2018-12-24T04:06:07.751Z,98525.13
2018-12-24T04:08:48.713Z,98546.54
2018-12-24T04:11:29.977Z,98543.20
2018-12-24T04:14:10.908Z,98548.16
2018-12-24T04:16:51.503Z,98573.95
2018-12-24T04:19:32.081Z,98594.73
2018-12-24T04:22:13.104Z,98608.13
2018-12-24T04:24:53.986Z,98591.37
2018-12-24T04:27:41.754Z,98561.92
2018-12-24T04:30:17.589Z,98601.16
2018-12-24T04:32:57.854Z,98623.63
2018-12-24T04:35:38.530Z,98630.10
2018-12-24T04:38:19.730Z,98637.02
2018-12-24T04:41:00.767Z,98641.00
2018-12-24T04:43:41.931Z,98621.55
2018-12-24T04:46:22.934Z,98678.62
2018-12-24T04:49:02.986Z,98690.87
2018-12-24T04:51:43.325Z,98664.47
2018-12-24T04:54:23.475Z,98691.33
2018-12-24T04:57:03.572Z,98701.92
2018-12-24T04:59:44.192Z,98721.98
2018-12-24T05:02:24.547Z,98706.20
2018-12-24T05:05:04.813Z,98735.66
2018-12-24T05:07:45.674Z,98735.36
2018-12-24T05:10:26.542Z,98744.75
2018-12-24T05:13:06.709Z,98771.34
2018-12-24T05:15:47.629Z,98777.62
2018-12-24T05:18:29.323Z,98821.52
2018-12-24T05:21:11.006Z,98838.38
2018-12-24T05:23:51.673Z,98832.53
2018-12-24T05:26:32.847Z,98813.67
2018-12-24T05:29:13.316Z,98860.33
2018-12-24T05:31:53.964Z,98850.61
2018-12-24T05:34:34.513Z,98856.55
2018-12-24T05:37:15.131Z,98880.22
2018-12-24T05:39:55.181Z,98893.28
2018-12-24T05:42:35.345Z,98904.88
2018-12-24T05:45:15.840Z,98901.58
2018-12-24T05:47:55.992Z,98912.77
2018-12-24T05:50:36.152Z,98915.23
2018-12-24T05:53:16.931Z,98923.42
2018-12-24T05:56:04.251Z,98921.62
2018-12-24T05:58:45.140Z,98936.05
2018-12-24T06:01:25.426Z,98941.55
2018-12-24T06:04:06.133Z,98936.14
2018-12-24T06:06:46.856Z,98918.34
2018-12-24T06:09:27.448Z,98960.75
2018-12-24T06:12:07.738Z,98975.30
2018-12-24T06:14:49.164Z,98991.02
2018-12-24T06:17:30.099Z,99003.79
2018-12-24T06:20:11.175Z,98985.17
2018-12-24T06:22:51.259Z,98989.98
2018-12-24T06:25:31.446Z,99022.69
2018-12-24T06:28:12.521Z,99007.56
2018-12-24T06:30:54.015Z,99060.36
2018-12-24T06:33:34.775Z,99035.45
2018-12-24T06:36:16.058Z,99074.84
2018-12-24T06:38:56.970Z,99077.63
2018-12-24T06:41:37.775Z,99092.23
2018-12-24T06:44:18.193Z,99085.42
2018-12-24T06:47:05.646Z,99075.73
2018-12-24T06:49:46.082Z,99102.17
2018-12-24T06:52:26.194Z,99098.79
2018-12-24T06:55:06.544Z,99113.70
2018-12-24T06:57:47.588Z,99153.01
2018-12-24T07:00:28.607Z,99158.16
2018-12-24T07:03:08.876Z,99162.19
2018-12-24T07:05:50.008Z,99162.87
2018-12-24T07:08:31.014Z,99175.44
2018-12-24T07:11:11.126Z,99163.34
2018-12-24T07:13:52.065Z,99179.11
2018-12-24T07:16:33.004Z,99183.66
2018-12-24T07:19:13.317Z,99211.68
2018-12-24T07:21:53.520Z,99225.05
2018-12-24T07:24:33.768Z,99243.66
2018-12-24T07:27:14.000Z,99251.48
2018-12-24T07:29:55.370Z,99237.23
2018-12-24T07:32:36.327Z,99239.30
2018-12-24T07:35:17.449Z,99271.21
2018-12-24T07:37:57.488Z,99271.59
2018-12-24T07:40:38.024Z,99285.70
2018-12-24T07:43:19.225Z,99261.21
2018-12-24T07:46:00.201Z,99290.72
2018-12-24T07:48:47.696Z,99300.61
2018-12-24T07:51:30.718Z,99274.55
2018-12-24T07:54:11.382Z,99285.31
2018-12-24T07:56:52.726Z,99303.44
2018-12-24T07:59:33.672Z,99307.19
2018-12-24T08:02:13.763Z,99308.54
2018-12-24T08:04:55.646Z,99287.61
2018-12-24T08:07:36.503Z,99286.73
2018-12-24T08:10:17.363Z,99321.23
2018-12-24T08:12:58.977Z,99321.59
2018-12-24T08:15:39.709Z,99318.27
2018-12-24T08:18:28.508Z,99323.48
2018-12-24T08:21:32.295Z,99322.33
2018-12-24T08:24:13.698Z,99317.99
2018-12-24T08:26:55.705Z,99338.70
2018-12-24T08:29:36.566Z,99338.03
2018-12-24T08:32:17.170Z,99322.05
2018-12-24T08:34:57.977Z,99346.31
2018-12-24T08:37:39.303Z,99322.49
2018-12-24T08:40:20.592Z,99350.47
2018-12-24T08:43:01.504Z,99360.94
2018-12-24T08:45:42.347Z,99368.20
2018-12-24T08:48:24.174Z,99371.64
2018-12-24T08:51:05.231Z,99343.27
2018-12-24T08:53:45.371Z,99376.99
2018-12-24T08:56:25.558Z,99376.53
2018-12-24T08:59:05.685Z,99374.20
2018-12-24T09:01:47.092Z,99346.98
2018-12-24T09:04:27.540Z,99384.60
2018-12-24T09:07:08.430Z,99384.20
2018-12-24T09:09:48.452Z,99384.03
2018-12-24T09:12:29.016Z,99390.61
2018-12-24T09:15:10.154Z,99404.98
2018-12-24T09:17:57.663Z,99411.20
2018-12-24T09:20:38.626Z,99414.05
2018-12-24T09:23:20.459Z,99419.98
2018-12-24T09:26:01.017Z,99422.17
2018-12-24T09:28:42.028Z,99402.70
2018-12-24T09:31:23.381Z,99420.73
2018-12-24T09:34:04.295Z,99409.50
2018-12-24T09:36:52.076Z,99441.14
2018-12-24T09:39:32.480Z,99427.89
2018-12-24T09:42:12.725Z,99411.29
2018-12-24T09:44:58.937Z,99444.53
2018-12-24T09:47:36.077Z,99448.30
2018-12-24T09:50:16.879Z,99442.53
2018-12-24T09:52:58.186Z,99457.07
2018-12-24T09:55:38.606Z,99461.52
2018-12-24T09:58:19.418Z,99461.54
2018-12-24T10:00:59.562Z,99463.92
2018-12-24T10:03:42.654Z,99474.72
2018-12-24T10:06:33.974Z,99480.41
2018-12-24T10:09:14.992Z,99479.97
2018-12-24T10:11:55.521Z,99459.08
2018-12-24T10:14:36.177Z,99491.91
2018-12-24T10:17:17.276Z,99472.16
2018-12-24T10:19:57.580Z,99480.80
2018-12-24T10:22:38.580Z,99503.56
2018-12-24T10:25:18.672Z,99496.56
2018-12-24T10:27:59.177Z,99501.16
2018-12-24T10:30:40.414Z,99499.24
2018-12-24T10:33:21.144Z,99485.56
2018-12-24T10:36:02.269Z,99480.04
2018-12-24T10:38:43.348Z,99497.21
2018-12-24T10:41:25.218Z,99505.44
2018-12-24T10:44:07.748Z,99476.79
2018-12-24T10:46:48.602Z,99500.51
2018-12-24T10:49:28.935Z,99501.47
2018-12-24T10:52:09.262Z,99503.66
2018-12-24T10:54:49.935Z,99509.94
2018-12-24T10:57:30.014Z,99514.34
2018-12-24T11:00:11.205Z,99481.88
2018-12-24T11:02:52.395Z,99510.09
2018-12-24T11:05:33.311Z,99513.06
2018-12-24T11:08:13.871Z,99487.62
2018-12-24T11:10:54.316Z,99500.22
2018-12-24T11:13:35.150Z,99508.47
2018-12-24T11:16:15.217Z,99544.92
2018-12-24T11:18:55.263Z,99537.39
2018-12-24T11:21:36.442Z,99527.63
2018-12-24T11:24:17.898Z,99544.85
2018-12-24T11:26:57.945Z,99536.56
2018-12-24T11:29:38.797Z,99536.45
2018-12-24T11:32:18.979Z,99541.77
2018-12-24T11:35:06.511Z,99545.29
2018-12-24T11:37:47.221Z,99548.59
2018-12-24T11:40:27.426Z,99546.89
2018-12-24T11:43:08.645Z,99522.88
2018-12-24T11:45:50.213Z,99551.48
2018-12-24T11:48:30.663Z,99549.95
2018-12-24T11:51:10.718Z,99552.84
2018-12-24T11:53:51.081Z,99558.45
2018-12-24T11:56:31.580Z,99539.96
2018-12-24T11:59:12.419Z,99559.59
2018-12-24T12:01:52.902Z,99565.24
2018-12-24T12:04:33.667Z,99571.31
2018-12-24T12:07:15.055Z,99568.86
2018-12-24T12:09:55.977Z,99569.08
2018-12-24T12:12:36.435Z,99570.16
2018-12-24T12:15:16.715Z,99575.23
2018-12-24T12:17:56.933Z,99568.09
2018-12-24T12:20:37.174Z,99602.04
2018-12-24T12:23:18.165Z,99606.28
2018-12-24T12:25:58.296Z,99609.65
2018-12-24T12:28:38.446Z,99591.66
2018-12-24T12:31:18.512Z,99583.55
2018-12-24T12:33:58.634Z,99605.92
2018-12-24T12:36:40.678Z,99597.22
2018-12-24T12:39:21.040Z,99601.77
2018-12-24T12:42:01.171Z,99613.17
2018-12-24T12:44:41.244Z,99608.72
2018-12-24T12:47:22.407Z,99591.21
2018-12-24T12:50:03.396Z,99620.53
2018-12-24T12:52:44.425Z,99622.90
2018-12-24T12:55:25.555Z,99630.47
2018-12-24T12:58:06.466Z,99609.84
2018-12-24T13:00:46.958Z,99624.34
2018-12-24T13:03:27.802Z,99622.48
2018-12-24T13:06:15.665Z,99633.55
2018-12-24T13:08:55.898Z,99602.36
2018-12-24T13:11:36.998Z,99633.51
2018-12-24T13:14:17.993Z,99644.48
2018-12-24T13:16:58.868Z,99646.16
2018-12-24T13:19:39.719Z,99649.20
2018-12-24T13:22:20.791Z,99645.89
2018-12-24T13:25:00.865Z,99657.83
2018-12-24T13:27:41.899Z,99660.34
2018-12-24T13:30:23.782Z,99664.90
2018-12-24T13:33:04.043Z,99677.70
2018-12-24T13:35:51.836Z,99672.20
2018-12-24T13:38:31.876Z,99679.38
2018-12-24T13:41:12.853Z,99676.20
2018-12-24T13:43:53.084Z,99686.49
2018-12-24T13:46:33.163Z,99682.09
2018-12-24T13:49:14.079Z,99688.88
2018-12-24T13:51:54.308Z,99684.94
2018-12-24T13:54:34.354Z,99691.86
2018-12-24T13:57:14.801Z,99701.63
2018-12-24T13:59:55.844Z,99707.84
2018-12-24T14:02:36.825Z,99682.95
2018-12-24T14:05:17.728Z,99705.06
2018-12-24T14:07:57.859Z,99706.53
2018-12-24T14:10:37.933Z,99679.75
2018-12-24T14:13:18.942Z,99697.63
2018-12-24T14:15:59.280Z,99699.14
2018-12-24T14:18:39.498Z,99693.36
2018-12-24T14:21:07.511Z,99686.03
2018-12-24T14:23:35.574Z,99720.42
2018-12-24T14:26:03.879Z,99737.16
2018-12-24T14:28:32.084Z,99745.67
2018-12-24T14:31:00.086Z,99737.19
2018-12-24T14:33:28.626Z,99730.50
2018-12-24T14:35:57.174Z,99739.02
2018-12-24T14:38:25.176Z,99744.48
2018-12-24T14:40:53.229Z,99748.86
2018-12-24T14:43:21.451Z,99744.02
2018-12-24T14:45:49.457Z,99748.87
2018-12-24T14:48:17.659Z,99743.55
2018-12-24T14:50:47.375Z,99742.70
2018-12-24T14:53:15.849Z,99753.34
2018-12-24T14:55:44.050Z,99761.66
2018-12-24T14:58:12.449Z,99761.11
2018-12-24T15:00:40.710Z,99765.80
2018-12-24T15:03:09.182Z,99767.45
2018-12-24T15:05:37.130Z,99759.84
2018-12-24T15:08:05.176Z,99760.72
2018-12-24T15:10:33.643Z,99758.56
2018-12-24T15:13:01.664Z,99762.87
2018-12-24T15:15:29.875Z,99774.14
2018-12-24T15:17:58.331Z,99774.86
2018-12-24T15:20:26.577Z,99775.68
2018-12-24T15:22:54.576Z,99770.41
2018-12-24T15:25:22.567Z,99778.05
2018-12-24T15:27:50.790Z,99776.58
2018-12-24T15:30:18.755Z,99785.75
2018-12-24T15:32:47.230Z,99794.60
2018-12-24T15:35:15.709Z,99799.28
2018-12-24T15:37:43.926Z,99803.70
2018-12-24T15:40:12.204Z,99811.69
2018-12-24T15:42:40.323Z,99816.80
2018-12-24T15:45:08.316Z,99818.02
2018-12-24T15:47:36.423Z,99813.19
2018-12-24T15:50:04.577Z,99820.52
2018-12-24T15:52:32.522Z,99815.66
2018-12-24T15:55:00.597Z,99818.16
2018-12-24T15:57:28.564Z,99820.02
2018-12-24T15:59:57.338Z,99834.20
2018-12-24T16:02:25.625Z,99845.09
2018-12-24T16:04:53.901Z,99859.15
2018-12-24T16:07:21.886Z,99858.80
2018-12-24T16:09:50.147Z,99864.11
2018-12-24T16:12:19.254Z,99859.77
2018-12-24T16:14:47.476Z,99860.89
2018-12-24T16:17:15.967Z,99854.48
2018-12-24T16:19:44.200Z,99854.56
2018-12-24T16:22:12.419Z,99853.34
2018-12-24T16:24:40.675Z,99853.90
2018-12-24T16:27:08.642Z,99857.61
2018-12-24T16:29:36.609Z,99864.93
2018-12-24T16:32:04.558Z,99861.59
2018-12-24T16:34:32.583Z,99858.09
2018-12-24T16:37:00.586Z,99859.55
2018-12-24T16:39:28.596Z,99864.73
2018-12-24T16:41:56.795Z,99873.16
2018-12-24T16:44:24.835Z,99869.02
2018-12-24T16:46:59.322Z,99873.91
2018-12-24T16:49:25.422Z,99868.83
2018-12-24T16:51:53.372Z,99882.11
2018-12-24T16:54:21.998Z,99885.52
2018-12-24T16:56:50.075Z,99888.89
2018-12-24T16:59:18.336Z,99890.23
2018-12-24T17:01:46.693Z,99891.09
2018-12-24T17:04:15.949Z,99892.88
2018-12-24T17:06:44.028Z,99895.95
2018-12-24T17:09:11.990Z,99905.46
2018-12-24T17:11:39.929Z,99904.81
2018-12-24T17:14:08.411Z,99910.00
2018-12-24T17:16:36.698Z,99908.95
2018-12-24T17:19:04.727Z,99911.30
2018-12-24T17:21:33.170Z,99911.23
2018-12-24T17:24:01.171Z,99918.36
2018-12-24T17:26:29.169Z,99924.19
2018-12-24T17:28:57.179Z,99921.77
2018-12-24T17:31:25.390Z,99931.33
2018-12-24T17:33:53.492Z,99933.09
2018-12-24T17:36:21.814Z,99940.05
2018-12-24T17:38:49.831Z,99945.63
2018-12-24T17:41:17.873Z,99941.98
2018-12-24T17:43:45.915Z,99939.09
2018-12-24T17:46:13.923Z,99936.24
2018-12-24T17:48:42.157Z,99936.64
2018-12-24T17:51:10.522Z,99940.16
2018-12-24T17:53:38.902Z,99938.79
2018-12-24T17:56:07.084Z,99946.57
2018-12-24T17:58:35.210Z,99943.50
2018-12-24T18:01:04.112Z,99942.44
2018-12-24T18:03:36.168Z,99940.41
2018-12-24T18:06:07.384Z,99942.09
2018-12-24T18:08:35.953Z,99952.96
2018-12-24T18:11:04.383Z,99951.78
2018-12-24T18:13:32.748Z,99953.75
2018-12-24T18:16:00.977Z,99956.23
2018-12-24T18:18:29.496Z,99959.41
2018-12-24T18:20:57.530Z,99954.45
2018-12-24T18:23:25.712Z,99954.00
2018-12-24T18:25:53.931Z,99965.02
2018-12-24T18:28:22.191Z,99959.84
2018-12-24T18:30:50.365Z,99965.53
2018-12-24T18:33:18.324Z,99964.69
2018-12-24T18:35:46.612Z,99964.44
2018-12-24T18:38:14.614Z,99968.37
2018-12-24T18:40:42.768Z,99970.58
2018-12-24T18:43:10.854Z,99977.52
2018-12-24T18:45:39.622Z,99980.14
2018-12-24T18:48:07.791Z,99988.30
2018-12-24T18:50:36.671Z,99988.02
2018-12-24T18:53:04.822Z,99988.89
2018-12-24T18:55:32.787Z,99990.87
2018-12-24T18:58:01.190Z,99990.98
2018-12-24T19:00:29.406Z,99995.83
2018-12-24T19:02:57.634Z,99994.41
2018-12-24T19:05:25.915Z,99993.09
2018-12-24T19:07:53.952Z,99994.30
2018-12-24T19:10:21.983Z,99991.63
2018-12-24T19:12:50.171Z,99994.68
2018-12-24T19:15:18.271Z,99992.87
2018-12-24T19:17:46.778Z,99992.09
2018-12-24T19:20:14.747Z,99994.44
2018-12-24T19:22:43.054Z,99997.23
2018-12-24T19:25:11.291Z,100001.27
2018-12-24T19:27:39.550Z,100004.75
2018-12-24T19:30:08.805Z,99996.79
2018-12-24T19:32:37.232Z,99998.52
2018-12-24T19:35:05.126Z,99994.94
2018-12-24T19:37:33.405Z,99996.38
2018-12-24T19:40:01.439Z,100000.78
2018-12-24T19:42:29.441Z,99994.55
2018-12-24T19:44:57.485Z,100006.63
2018-12-24T19:47:25.454Z,100015.40
2018-12-24T19:49:53.489Z,100025.75
2018-12-24T19:52:21.897Z,100042.92
2018-12-24T19:54:49.890Z,100049.67
2018-12-24T19:57:18.035Z,100046.34
2018-12-24T19:59:46.388Z,100047.67
2018-12-24T20:02:14.342Z,100058.89
2018-12-24T20:04:43.032Z,100060.05
2018-12-24T20:07:11.373Z,100061.98
2018-12-24T20:09:39.727Z,100069.73
2018-12-24T20:12:07.997Z,100073.03
2018-12-24T20:14:36.060Z,100073.82
2018-12-24T20:17:04.280Z,100070.72
2018-12-24T20:19:32.577Z,100072.05
2018-12-24T20:22:00.719Z,100076.50
2018-12-24T20:24:29.391Z,100079.73
2018-12-24T20:26:57.371Z,100079.73
2018-12-24T20:29:25.310Z,100073.89
2018-12-24T20:31:53.371Z,100084.51
2018-12-24T20:34:21.458Z,100098.19
2018-12-24T20:36:49.453Z,100106.72
2018-12-24T20:39:17.550Z,100124.63
2018-12-24T20:41:45.498Z,100132.31
2018-12-24T20:44:13.463Z,100143.38
2018-12-24T20:46:41.397Z,100152.38
2018-12-24T20:49:09.338Z,100162.26
2018-12-24T20:51:37.304Z,100150.05
2018-12-24T20:54:05.247Z,100152.13
2018-12-24T20:56:33.806Z,100157.17
2018-12-24T20:59:01.760Z,100169.90
2018-12-24T21:01:29.772Z,100160.65
2018-12-24T21:03:59.623Z,100156.91
2018-12-24T21:06:28.484Z,100155.29
2018-12-24T21:08:56.516Z,100163.31
2018-12-24T21:11:24.844Z,100167.62
2018-12-24T21:13:53.028Z,100159.22
2018-12-24T21:16:21.000Z,100159.92
2018-12-24T21:18:49.238Z,100160.45
2018-12-24T21:21:17.319Z,100156.67
2018-12-24T21:23:45.419Z,100157.94
2018-12-24T21:26:13.884Z,100143.53
2018-12-24T21:28:41.872Z,100150.70
2018-12-24T21:31:10.131Z,100135.59
2018-12-24T21:33:38.120Z,100144.48
2018-12-24T21:36:06.105Z,100130.61
2018-12-24T21:38:34.212Z,100128.17
2018-12-24T21:41:02.146Z,100121.39
2018-12-24T21:43:30.106Z,100126.48
2018-12-24T21:45:58.114Z,100124.78
2018-12-24T21:48:26.724Z,100129.87
2018-12-24T21:50:54.970Z,100121.81
2018-12-24T21:53:23.067Z,100120.22
2018-12-24T21:55:52.788Z,100123.22
2018-12-24T21:58:21.155Z,100133.03
2018-12-24T22:00:49.135Z,100126.22
2018-12-24T22:03:17.100Z,100136.87
2018-12-24T22:05:45.054Z,100139.80
2018-12-24T22:08:13.253Z,100140.35
2018-12-24T22:10:41.444Z,100147.95
2018-12-24T22:13:09.418Z,100147.46
2018-12-24T22:15:37.349Z,100153.39
2018-12-24T22:18:06.324Z,100144.12
2018-12-24T22:20:34.309Z,100144.95
2018-12-24T22:23:02.477Z,100152.61
2018-12-24T22:25:30.548Z,100159.41
2018-12-24T22:27:58.515Z,100148.81
2018-12-24T22:30:26.488Z,100154.78
2018-12-24T22:32:54.561Z,100147.16
2018-12-24T22:35:22.731Z,100146.27
2018-12-24T22:37:50.787Z,100150.52
2018-12-24T22:40:18.778Z,100158.56
2018-12-24T22:42:46.714Z,100161.58
2018-12-24T22:45:14.856Z,100161.60
2018-12-24T22:47:43.163Z,100158.25
2018-12-24T22:50:11.088Z,100158.22
2018-12-24T22:52:39.093Z,100164.14
2018-12-24T22:55:07.028Z,100165.41
2018-12-24T22:57:35.000Z,100165.44
2018-12-24T23:00:03.890Z,100168.48
2018-12-24T23:02:31.932Z,100184.57
2018-12-24T23:04:59.840Z,100168.91
2018-12-24T23:07:28.022Z,100176.59
2018-12-24T23:09:56.481Z,100172.37
2018-12-24T23:12:24.431Z,100180.44
2018-12-24T23:14:52.663Z,100177.09
2018-12-24T23:17:20.874Z,100175.39
2018-12-24T23:19:48.887Z,100187.70
2018-12-24T23:22:17.159Z,100182.58
2018-12-24T23:24:45.166Z,100197.01
2018-12-24T23:27:13.161Z,100199.59
2018-12-24T23:29:41.444Z,100194.88
2018-12-24T23:32:09.380Z,100195.36
2018-12-24T23:34:37.415Z,100192.80
2018-12-24T23:37:05.421Z,100192.41
2018-12-24T23:39:33.363Z,100196.23
2018-12-24T23:42:01.836Z,100197.06
2018-12-24T23:44:30.043Z,100197.92
2018-12-24T23:46:57.980Z,100194.60
2018-12-24T23:49:25.952Z,100193.33
2018-12-24T23:51:53.868Z,100186.56
2018-12-24T23:54:22.091Z,100183.98
2018-12-24T23:56:50.289Z,100177.23
2018-12-24T23:59:18.228Z,100181.08
